sensor_id;sensor_type;location;lat;lon;timestamp;P1;durP1;ratioP1;P2;durP2;ratioP2
49177;SDS011;35016;55.674;37.468;2023-04-15T00:01:05;3.10;;;1.05;;
49177;SDS011;35016;55.674;37.468;2023-04-15T00:03:33;2.90;;;0.85;;
49177;SDS011;35016;55.674;37.468;2023-04-15T00:06:01;4.82;;;1.15;;
49177;SDS011;35016;55.674;37.468;2023-04-15T00:08:29;4.78;;;1.38;;
49177;SDS011;35016;55.674;37.468;2023-04-15T00:10:57;4.63;;;1.00;;
49177;SDS011;35016;55.674;37.468;2023-04-15T00:13:29;4.03;;;1.13;;
49177;SDS011;35016;55.674;37.468;2023-04-15T00:15:56;3.42;;;0.95;;
49177;SDS011;35016;55.674;37.468;2023-04-15T00:18:23;5.80;;;1.30;;
49177;SDS011;35016;55.674;37.468;2023-04-15T00:20:51;5.30;;;1.60;;
49177;SDS011;35016;55.674;37.468;2023-04-15T00:23:18;3.75;;;1.33;;
49177;SDS011;35016;55.674;37.468;2023-04-15T00:25:45;3.58;;;1.00;;
49177;SDS011;35016;55.674;37.468;2023-04-15T00:28:13;5.13;;;1.42;;
49177;SDS011;35016;55.674;37.468;2023-04-15T00:30:41;4.63;;;1.38;;
49177;SDS011;35016;55.674;37.468;2023-04-15T00:33:08;3.70;;;1.17;;
49177;SDS011;35016;55.674;37.468;2023-04-15T00:35:36;3.22;;;0.95;;
49177;SDS011;35016;55.674;37.468;2023-04-15T00:38:03;3.72;;;0.93;;
49177;SDS011;35016;55.674;37.468;2023-04-15T00:40:31;3.17;;;0.80;;
49177;SDS011;35016;55.674;37.468;2023-04-15T00:42:59;3.08;;;1.02;;
49177;SDS011;35016;55.674;37.468;2023-04-15T00:45:26;4.22;;;1.25;;
49177;SDS011;35016;55.674;37.468;2023-04-15T00:47:56;2.97;;;0.93;;
49177;SDS011;35016;55.674;37.468;2023-04-15T00:50:24;1.75;;;0.80;;
49177;SDS011;35016;55.674;37.468;2023-04-15T00:52:51;4.00;;;1.27;;
49177;SDS011;35016;55.674;37.468;2023-04-15T00:55:18;3.15;;;1.10;;
49177;SDS011;35016;55.674;37.468;2023-04-15T00:57:45;3.80;;;1.15;;
49177;SDS011;35016;55.674;37.468;2023-04-15T01:00:12;3.47;;;1.05;;
49177;SDS011;35016;55.674;37.468;2023-04-15T01:02:39;3.40;;;1.00;;
49177;SDS011;35016;55.674;37.468;2023-04-15T01:05:07;4.07;;;1.23;;
49177;SDS011;35016;55.674;37.468;2023-04-15T01:07:35;4.93;;;1.40;;
49177;SDS011;35016;55.674;37.468;2023-04-15T01:10:02;4.25;;;1.20;;
49177;SDS011;35016;55.674;37.468;2023-04-15T01:12:31;4.43;;;1.17;;
49177;SDS011;35016;55.674;37.468;2023-04-15T01:14:58;2.63;;;0.90;;
49177;SDS011;35016;55.674;37.468;2023-04-15T01:17:25;4.35;;;1.15;;
49177;SDS011;35016;55.674;37.468;2023-04-15T01:19:54;4.47;;;1.40;;
49177;SDS011;35016;55.674;37.468;2023-04-15T01:22:22;4.65;;;1.38;;
49177;SDS011;35016;55.674;37.468;2023-04-15T01:24:55;4.82;;;1.45;;
49177;SDS011;35016;55.674;37.468;2023-04-15T01:27:29;2.88;;;1.00;;
49177;SDS011;35016;55.674;37.468;2023-04-15T01:29:56;3.67;;;1.40;;
49177;SDS011;35016;55.674;37.468;2023-04-15T01:32:24;2.58;;;1.02;;
49177;SDS011;35016;55.674;37.468;2023-04-15T01:35:10;4.18;;;1.27;;
49177;SDS011;35016;55.674;37.468;2023-04-15T01:37:46;4.28;;;1.10;;
49177;SDS011;35016;55.674;37.468;2023-04-15T01:40:15;4.82;;;1.35;;
49177;SDS011;35016;55.674;37.468;2023-04-15T01:42:44;3.92;;;1.20;;
49177;SDS011;35016;55.674;37.468;2023-04-15T01:45:12;4.25;;;1.40;;
49177;SDS011;35016;55.674;37.468;2023-04-15T01:47:40;3.05;;;1.00;;
49177;SDS011;35016;55.674;37.468;2023-04-15T01:50:09;4.10;;;1.15;;
49177;SDS011;35016;55.674;37.468;2023-04-15T01:52:38;3.72;;;1.35;;
49177;SDS011;35016;55.674;37.468;2023-04-15T01:55:07;8.15;;;1.85;;
49177;SDS011;35016;55.674;37.468;2023-04-15T01:57:36;4.95;;;1.50;;
49177;SDS011;35016;55.674;37.468;2023-04-15T02:00:06;5.60;;;1.42;;
49177;SDS011;35016;55.674;37.468;2023-04-15T02:02:40;2.90;;;1.15;;
49177;SDS011;35016;55.674;37.468;2023-04-15T02:05:09;5.35;;;1.30;;
49177;SDS011;35016;55.674;37.468;2023-04-15T02:07:37;3.30;;;1.02;;
49177;SDS011;35016;55.674;37.468;2023-04-15T02:10:06;3.78;;;1.40;;
49177;SDS011;35016;55.674;37.468;2023-04-15T02:12:35;3.10;;;0.85;;
49177;SDS011;35016;55.674;37.468;2023-04-15T02:15:04;3.15;;;1.00;;
49177;SDS011;35016;55.674;37.468;2023-04-15T02:17:36;5.43;;;1.42;;
49177;SDS011;35016;55.674;37.468;2023-04-15T02:20:04;4.22;;;1.00;;
49177;SDS011;35016;55.674;37.468;2023-04-15T02:22:33;5.43;;;1.20;;
49177;SDS011;35016;55.674;37.468;2023-04-15T02:25:02;3.40;;;1.33;;
49177;SDS011;35016;55.674;37.468;2023-04-15T02:27:32;4.53;;;1.27;;
49177;SDS011;35016;55.674;37.468;2023-04-15T02:30:00;2.70;;;1.17;;
49177;SDS011;35016;55.674;37.468;2023-04-15T02:32:28;4.90;;;1.30;;
49177;SDS011;35016;55.674;37.468;2023-04-15T02:35:06;2.88;;;1.17;;
49177;SDS011;35016;55.674;37.468;2023-04-15T02:37:36;3.25;;;1.20;;
49177;SDS011;35016;55.674;37.468;2023-04-15T02:40:11;3.00;;;1.05;;
49177;SDS011;35016;55.674;37.468;2023-04-15T02:42:40;3.17;;;1.13;;
49177;SDS011;35016;55.674;37.468;2023-04-15T02:45:12;4.82;;;1.20;;
49177;SDS011;35016;55.674;37.468;2023-04-15T02:47:41;5.60;;;1.73;;
49177;SDS011;35016;55.674;37.468;2023-04-15T02:50:10;3.53;;;1.30;;
49177;SDS011;35016;55.674;37.468;2023-04-15T02:52:41;8.32;;;1.52;;
49177;SDS011;35016;55.674;37.468;2023-04-15T02:55:10;3.85;;;1.33;;
49177;SDS011;35016;55.674;37.468;2023-04-15T02:57:39;4.28;;;1.23;;
49177;SDS011;35016;55.674;37.468;2023-04-15T03:00:10;5.20;;;1.90;;
49177;SDS011;35016;55.674;37.468;2023-04-15T03:02:44;2.95;;;1.08;;
49177;SDS011;35016;55.674;37.468;2023-04-15T03:05:13;2.75;;;0.95;;
49177;SDS011;35016;55.674;37.468;2023-04-15T03:07:48;4.50;;;1.25;;
49177;SDS011;35016;55.674;37.468;2023-04-15T03:10:17;4.88;;;1.60;;
49177;SDS011;35016;55.674;37.468;2023-04-15T03:12:46;3.50;;;1.40;;
49177;SDS011;35016;55.674;37.468;2023-04-15T03:15:20;4.82;;;1.60;;
49177;SDS011;35016;55.674;37.468;2023-04-15T03:17:51;4.90;;;0.90;;
49177;SDS011;35016;55.674;37.468;2023-04-15T03:20:20;6.55;;;1.67;;
49177;SDS011;35016;55.674;37.468;2023-04-15T03:22:48;3.83;;;1.50;;
49177;SDS011;35016;55.674;37.468;2023-04-15T03:25:18;4.78;;;1.17;;
49177;SDS011;35016;55.674;37.468;2023-04-15T03:27:47;2.58;;;1.00;;
49177;SDS011;35016;55.674;37.468;2023-04-15T03:30:16;3.75;;;1.30;;
49177;SDS011;35016;55.674;37.468;2023-04-15T03:32:45;4.45;;;1.48;;
49177;SDS011;35016;55.674;37.468;2023-04-15T03:35:14;5.22;;;1.58;;
49177;SDS011;35016;55.674;37.468;2023-04-15T03:37:42;4.68;;;1.30;;
49177;SDS011;35016;55.674;37.468;2023-04-15T03:40:10;4.35;;;1.50;;
49177;SDS011;35016;55.674;37.468;2023-04-15T03:42:39;3.08;;;1.23;;
49177;SDS011;35016;55.674;37.468;2023-04-15T03:45:07;3.53;;;1.08;;
49177;SDS011;35016;55.674;37.468;2023-04-15T03:47:36;3.88;;;1.02;;
49177;SDS011;35016;55.674;37.468;2023-04-15T03:50:04;7.38;;;1.58;;
49177;SDS011;35016;55.674;37.468;2023-04-15T03:52:34;5.45;;;1.50;;
49177;SDS011;35016;55.674;37.468;2023-04-15T03:55:02;4.82;;;1.45;;
49177;SDS011;35016;55.674;37.468;2023-04-15T03:57:30;8.73;;;1.95;;
49177;SDS011;35016;55.674;37.468;2023-04-15T03:59:59;3.05;;;1.23;;
49177;SDS011;35016;55.674;37.468;2023-04-15T04:02:27;5.55;;;1.40;;
49177;SDS011;35016;55.674;37.468;2023-04-15T04:04:55;6.03;;;1.85;;
49177;SDS011;35016;55.674;37.468;2023-04-15T04:07:24;6.10;;;1.80;;
49177;SDS011;35016;55.674;37.468;2023-04-15T04:09:52;3.30;;;1.27;;
49177;SDS011;35016;55.674;37.468;2023-04-15T04:12:20;2.55;;;1.00;;
49177;SDS011;35016;55.674;37.468;2023-04-15T04:14:48;3.08;;;1.23;;
49177;SDS011;35016;55.674;37.468;2023-04-15T04:17:17;4.53;;;1.73;;
49177;SDS011;35016;55.674;37.468;2023-04-15T04:19:45;5.80;;;1.48;;
49177;SDS011;35016;55.674;37.468;2023-04-15T04:22:13;3.50;;;1.17;;
49177;SDS011;35016;55.674;37.468;2023-04-15T04:24:42;4.55;;;1.63;;
49177;SDS011;35016;55.674;37.468;2023-04-15T04:27:10;5.22;;;1.88;;
49177;SDS011;35016;55.674;37.468;2023-04-15T04:29:38;6.90;;;1.90;;
49177;SDS011;35016;55.674;37.468;2023-04-15T04:32:07;5.13;;;1.15;;
49177;SDS011;35016;55.674;37.468;2023-04-15T04:34:35;5.07;;;1.67;;
49177;SDS011;35016;55.674;37.468;2023-04-15T04:37:04;10.38;;;1.85;;
49177;SDS011;35016;55.674;37.468;2023-04-15T04:39:32;5.15;;;1.48;;
49177;SDS011;35016;55.674;37.468;2023-04-15T04:42:00;4.70;;;1.73;;
49177;SDS011;35016;55.674;37.468;2023-04-15T04:44:29;6.10;;;2.08;;
49177;SDS011;35016;55.674;37.468;2023-04-15T04:46:57;7.85;;;1.80;;
49177;SDS011;35016;55.674;37.468;2023-04-15T04:49:25;7.00;;;2.35;;
49177;SDS011;35016;55.674;37.468;2023-04-15T04:51:53;7.68;;;2.20;;
49177;SDS011;35016;55.674;37.468;2023-04-15T04:54:22;7.65;;;2.28;;
49177;SDS011;35016;55.674;37.468;2023-04-15T04:56:50;4.65;;;1.80;;
49177;SDS011;35016;55.674;37.468;2023-04-15T04:59:18;7.13;;;2.30;;
49177;SDS011;35016;55.674;37.468;2023-04-15T05:01:47;6.07;;;2.00;;
49177;SDS011;35016;55.674;37.468;2023-04-15T05:04:15;6.35;;;2.08;;
49177;SDS011;35016;55.674;37.468;2023-04-15T05:06:44;6.45;;;2.15;;
49177;SDS011;35016;55.674;37.468;2023-04-15T05:09:12;4.55;;;1.23;;
49177;SDS011;35016;55.674;37.468;2023-04-15T05:11:40;5.65;;;1.55;;
49177;SDS011;35016;55.674;37.468;2023-04-15T05:14:08;6.40;;;1.73;;
49177;SDS011;35016;55.674;37.468;2023-04-15T05:16:37;7.28;;;2.47;;
49177;SDS011;35016;55.674;37.468;2023-04-15T05:19:05;8.77;;;2.67;;
49177;SDS011;35016;55.674;37.468;2023-04-15T05:21:34;5.22;;;1.27;;
49177;SDS011;35016;55.674;37.468;2023-04-15T05:24:06;5.05;;;1.63;;
49177;SDS011;35016;55.674;37.468;2023-04-15T05:26:34;6.57;;;1.83;;
49177;SDS011;35016;55.674;37.468;2023-04-15T05:29:02;6.30;;;1.83;;
49177;SDS011;35016;55.674;37.468;2023-04-15T05:31:31;6.25;;;1.85;;
49177;SDS011;35016;55.674;37.468;2023-04-15T05:33:59;6.93;;;2.17;;
49177;SDS011;35016;55.674;37.468;2023-04-15T05:36:28;6.97;;;2.08;;
49177;SDS011;35016;55.674;37.468;2023-04-15T05:38:56;5.97;;;1.58;;
49177;SDS011;35016;55.674;37.468;2023-04-15T05:41:24;7.80;;;2.28;;
49177;SDS011;35016;55.674;37.468;2023-04-15T05:43:52;6.68;;;2.42;;
49177;SDS011;35016;55.674;37.468;2023-04-15T05:46:21;3.45;;;1.30;;
49177;SDS011;35016;55.674;37.468;2023-04-15T05:48:49;3.58;;;1.60;;
49177;SDS011;35016;55.674;37.468;2023-04-15T05:51:17;5.57;;;2.08;;
49177;SDS011;35016;55.674;37.468;2023-04-15T05:53:45;4.30;;;1.60;;
49177;SDS011;35016;55.674;37.468;2023-04-15T05:56:14;5.00;;;1.63;;
49177;SDS011;35016;55.674;37.468;2023-04-15T05:58:42;5.22;;;1.70;;
49177;SDS011;35016;55.674;37.468;2023-04-15T06:01:10;9.32;;;2.25;;
49177;SDS011;35016;55.674;37.468;2023-04-15T06:03:39;3.72;;;1.33;;
49177;SDS011;35016;55.674;37.468;2023-04-15T06:06:07;3.85;;;1.25;;
49177;SDS011;35016;55.674;37.468;2023-04-15T06:08:36;4.43;;;1.42;;
49177;SDS011;35016;55.674;37.468;2023-04-15T06:11:05;9.80;;;2.05;;
49177;SDS011;35016;55.674;37.468;2023-04-15T06:13:33;5.35;;;1.73;;
49177;SDS011;35016;55.674;37.468;2023-04-15T06:16:01;6.55;;;1.90;;
49177;SDS011;35016;55.674;37.468;2023-04-15T06:18:31;6.22;;;1.90;;
49177;SDS011;35016;55.674;37.468;2023-04-15T06:20:59;6.47;;;1.92;;
49177;SDS011;35016;55.674;37.468;2023-04-15T06:23:27;6.13;;;1.95;;
49177;SDS011;35016;55.674;37.468;2023-04-15T06:25:55;6.13;;;2.53;;
49177;SDS011;35016;55.674;37.468;2023-04-15T06:28:24;6.25;;;2.45;;
49177;SDS011;35016;55.674;37.468;2023-04-15T06:30:52;8.20;;;1.67;;
49177;SDS011;35016;55.674;37.468;2023-04-15T06:33:21;4.78;;;1.40;;
49177;SDS011;35016;55.674;37.468;2023-04-15T06:35:49;7.63;;;2.85;;
49177;SDS011;35016;55.674;37.468;2023-04-15T06:38:18;7.28;;;2.30;;
49177;SDS011;35016;55.674;37.468;2023-04-15T06:40:46;8.32;;;2.20;;
49177;SDS011;35016;55.674;37.468;2023-04-15T06:43:14;6.43;;;2.08;;
49177;SDS011;35016;55.674;37.468;2023-04-15T06:45:43;5.55;;;2.20;;
49177;SDS011;35016;55.674;37.468;2023-04-15T06:48:11;9.38;;;2.13;;
49177;SDS011;35016;55.674;37.468;2023-04-15T06:50:39;6.32;;;2.42;;
49177;SDS011;35016;55.674;37.468;2023-04-15T06:53:08;7.38;;;1.73;;
49177;SDS011;35016;55.674;37.468;2023-04-15T06:55:36;8.13;;;2.83;;
49177;SDS011;35016;55.674;37.468;2023-04-15T06:58:05;5.57;;;1.88;;
49177;SDS011;35016;55.674;37.468;2023-04-15T07:00:33;5.75;;;1.48;;
49177;SDS011;35016;55.674;37.468;2023-04-15T07:03:01;5.10;;;1.75;;
49177;SDS011;35016;55.674;37.468;2023-04-15T07:05:30;6.22;;;1.92;;
49177;SDS011;35016;55.674;37.468;2023-04-15T07:07:59;4.32;;;1.48;;
49177;SDS011;35016;55.674;37.468;2023-04-15T07:10:27;4.43;;;1.50;;
49177;SDS011;35016;55.674;37.468;2023-04-15T07:12:56;3.70;;;1.45;;
49177;SDS011;35016;55.674;37.468;2023-04-15T07:15:24;4.65;;;1.50;;
49177;SDS011;35016;55.674;37.468;2023-04-15T07:17:52;5.13;;;1.35;;
49177;SDS011;35016;55.674;37.468;2023-04-15T07:20:21;6.35;;;1.83;;
49177;SDS011;35016;55.674;37.468;2023-04-15T07:22:49;4.45;;;1.38;;
49177;SDS011;35016;55.674;37.468;2023-04-15T07:25:18;4.97;;;1.83;;
49177;SDS011;35016;55.674;37.468;2023-04-15T07:27:46;5.60;;;2.13;;
49177;SDS011;35016;55.674;37.468;2023-04-15T07:30:15;4.88;;;1.92;;
49177;SDS011;35016;55.674;37.468;2023-04-15T07:32:43;5.85;;;1.77;;
49177;SDS011;35016;55.674;37.468;2023-04-15T07:35:11;4.55;;;1.58;;
49177;SDS011;35016;55.674;37.468;2023-04-15T07:37:40;4.90;;;1.80;;
49177;SDS011;35016;55.674;37.468;2023-04-15T07:40:10;6.82;;;2.50;;
49177;SDS011;35016;55.674;37.468;2023-04-15T07:42:38;5.38;;;1.90;;
49177;SDS011;35016;55.674;37.468;2023-04-15T07:45:08;6.43;;;2.10;;
49177;SDS011;35016;55.674;37.468;2023-04-15T07:47:37;7.80;;;2.40;;
49177;SDS011;35016;55.674;37.468;2023-04-15T07:50:05;11.70;;;2.85;;
49177;SDS011;35016;55.674;37.468;2023-04-15T07:52:34;6.93;;;2.15;;
49177;SDS011;35016;55.674;37.468;2023-04-15T07:55:06;6.57;;;1.77;;
49177;SDS011;35016;55.674;37.468;2023-04-15T07:57:36;9.57;;;2.72;;
49177;SDS011;35016;55.674;37.468;2023-04-15T08:00:04;4.10;;;1.38;;
49177;SDS011;35016;55.674;37.468;2023-04-15T08:02:40;9.73;;;4.40;;
49177;SDS011;35016;55.674;37.468;2023-04-15T08:05:10;10.40;;;3.83;;
49177;SDS011;35016;55.674;37.468;2023-04-15T08:07:38;6.15;;;1.98;;
49177;SDS011;35016;55.674;37.468;2023-04-15T08:10:07;7.65;;;2.47;;
49177;SDS011;35016;55.674;37.468;2023-04-15T08:12:35;5.22;;;1.67;;
49177;SDS011;35016;55.674;37.468;2023-04-15T08:15:04;4.47;;;1.70;;
49177;SDS011;35016;55.674;37.468;2023-04-15T08:17:33;6.45;;;2.55;;
49177;SDS011;35016;55.674;37.468;2023-04-15T08:20:02;6.82;;;2.70;;
49177;SDS011;35016;55.674;37.468;2023-04-15T08:22:32;8.05;;;2.65;;
49177;SDS011;35016;55.674;37.468;2023-04-15T08:25:01;8.23;;;2.30;;
49177;SDS011;35016;55.674;37.468;2023-04-15T08:27:30;8.57;;;2.75;;
49177;SDS011;35016;55.674;37.468;2023-04-15T08:29:58;5.68;;;2.13;;
49177;SDS011;35016;55.674;37.468;2023-04-15T08:32:30;8.75;;;2.95;;
49177;SDS011;35016;55.674;37.468;2023-04-15T08:34:58;7.60;;;3.20;;
49177;SDS011;35016;55.674;37.468;2023-04-15T08:37:27;7.15;;;2.08;;
49177;SDS011;35016;55.674;37.468;2023-04-15T08:39:55;7.15;;;2.67;;
49177;SDS011;35016;55.674;37.468;2023-04-15T08:42:30;6.50;;;2.22;;
49177;SDS011;35016;55.674;37.468;2023-04-15T08:45:03;6.40;;;2.10;;
49177;SDS011;35016;55.674;37.468;2023-04-15T08:47:32;5.63;;;2.15;;
49177;SDS011;35016;55.674;37.468;2023-04-15T08:50:06;9.63;;;3.40;;
49177;SDS011;35016;55.674;37.468;2023-04-15T08:52:36;10.18;;;2.45;;
49177;SDS011;35016;55.674;37.468;2023-04-15T08:55:05;7.60;;;2.95;;
49177;SDS011;35016;55.674;37.468;2023-04-15T08:57:36;8.02;;;2.25;;
49177;SDS011;35016;55.674;37.468;2023-04-15T09:00:06;11.25;;;3.80;;
49177;SDS011;35016;55.674;37.468;2023-04-15T09:02:36;8.15;;;2.63;;
49177;SDS011;35016;55.674;37.468;2023-04-15T09:05:05;12.23;;;3.30;;
49177;SDS011;35016;55.674;37.468;2023-04-15T09:07:34;7.65;;;2.25;;
49177;SDS011;35016;55.674;37.468;2023-04-15T09:10:03;9.00;;;3.67;;
49177;SDS011;35016;55.674;37.468;2023-04-15T09:12:35;9.90;;;3.45;;
49177;SDS011;35016;55.674;37.468;2023-04-15T09:15:04;9.20;;;2.90;;
49177;SDS011;35016;55.674;37.468;2023-04-15T09:17:33;8.18;;;2.78;;
49177;SDS011;35016;55.674;37.468;2023-04-15T09:20:14;7.65;;;2.50;;
49177;SDS011;35016;55.674;37.468;2023-04-15T09:22:46;8.40;;;2.13;;
49177;SDS011;35016;55.674;37.468;2023-04-15T09:27:50;6.95;;;2.80;;
49177;SDS011;35016;55.674;37.468;2023-04-15T09:30:21;7.28;;;2.15;;
49177;SDS011;35016;55.674;37.468;2023-04-15T09:32:53;7.10;;;2.85;;
49177;SDS011;35016;55.674;37.468;2023-04-15T09:35:24;6.57;;;2.35;;
49177;SDS011;35016;55.674;37.468;2023-04-15T09:38:04;7.55;;;2.78;;
49177;SDS011;35016;55.674;37.468;2023-04-15T09:40:35;10.35;;;3.03;;
49177;SDS011;35016;55.674;37.468;2023-04-15T09:43:05;7.50;;;2.40;;
49177;SDS011;35016;55.674;37.468;2023-04-15T09:45:36;7.78;;;2.85;;
49177;SDS011;35016;55.674;37.468;2023-04-15T09:51:02;8.20;;;2.10;;
49177;SDS011;35016;55.674;37.468;2023-04-15T09:53:32;6.70;;;2.28;;
49177;SDS011;35016;55.674;37.468;2023-04-15T09:56:03;8.07;;;2.33;;
49177;SDS011;35016;55.674;37.468;2023-04-15T09:58:34;7.00;;;2.60;;
49177;SDS011;35016;55.674;37.468;2023-04-15T10:01:05;7.03;;;3.08;;
49177;SDS011;35016;55.674;37.468;2023-04-15T10:03:36;6.53;;;2.30;;
49177;SDS011;35016;55.674;37.468;2023-04-15T10:06:09;5.63;;;2.53;;
49177;SDS011;35016;55.674;37.468;2023-04-15T10:08:38;8.43;;;2.38;;
49177;SDS011;35016;55.674;37.468;2023-04-15T10:11:08;5.45;;;2.00;;
49177;SDS011;35016;55.674;37.468;2023-04-15T10:13:37;6.65;;;2.00;;
49177;SDS011;35016;55.674;37.468;2023-04-15T10:16:13;6.80;;;2.25;;
49177;SDS011;35016;55.674;37.468;2023-04-15T10:18:44;7.82;;;2.60;;
49177;SDS011;35016;55.674;37.468;2023-04-15T10:21:14;8.98;;;2.72;;
49177;SDS011;35016;55.674;37.468;2023-04-15T10:23:45;7.40;;;2.55;;
49177;SDS011;35016;55.674;37.468;2023-04-15T10:26:15;7.90;;;2.03;;
49177;SDS011;35016;55.674;37.468;2023-04-15T10:28:45;9.15;;;2.55;;
49177;SDS011;35016;55.674;37.468;2023-04-15T10:31:16;7.70;;;2.95;;
49177;SDS011;35016;55.674;37.468;2023-04-15T10:33:45;5.63;;;2.03;;
49177;SDS011;35016;55.674;37.468;2023-04-15T10:36:15;6.97;;;2.63;;
49177;SDS011;35016;55.674;37.468;2023-04-15T10:38:45;8.10;;;2.67;;
49177;SDS011;35016;55.674;37.468;2023-04-15T10:41:15;12.32;;;2.33;;
49177;SDS011;35016;55.674;37.468;2023-04-15T10:43:51;9.18;;;2.55;;
49177;SDS011;35016;55.674;37.468;2023-04-15T10:46:22;7.47;;;2.53;;
49177;SDS011;35016;55.674;37.468;2023-04-15T10:51:49;6.13;;;2.00;;
49177;SDS011;35016;55.674;37.468;2023-04-15T10:59:31;10.50;;;2.78;;
49177;SDS011;35016;55.674;37.468;2023-04-15T11:02:03;7.47;;;3.20;;
49177;SDS011;35016;55.674;37.468;2023-04-15T11:07:36;6.47;;;2.42;;
49177;SDS011;35016;55.674;37.468;2023-04-15T11:12:53;9.82;;;3.50;;
49177;SDS011;35016;55.674;37.468;2023-04-15T11:15:34;6.05;;;2.15;;
49177;SDS011;35016;55.674;37.468;2023-04-15T11:20:52;5.47;;;2.03;;
49177;SDS011;35016;55.674;37.468;2023-04-15T11:26:06;5.32;;;1.88;;
49177;SDS011;35016;55.674;37.468;2023-04-15T11:28:39;10.02;;;2.75;;
49177;SDS011;35016;55.674;37.468;2023-04-15T11:31:09;6.88;;;2.50;;
49177;SDS011;35016;55.674;37.468;2023-04-15T11:36:14;9.23;;;3.63;;
49177;SDS011;35016;55.674;37.468;2023-04-15T11:38:42;6.22;;;1.90;;
49177;SDS011;35016;55.674;37.468;2023-04-15T11:41:12;9.27;;;2.88;;
49177;SDS011;35016;55.674;37.468;2023-04-15T11:43:41;6.78;;;2.20;;
49177;SDS011;35016;55.674;37.468;2023-04-15T11:46:09;8.77;;;2.58;;
49177;SDS011;35016;55.674;37.468;2023-04-15T11:48:40;12.35;;;2.70;;
49177;SDS011;35016;55.674;37.468;2023-04-15T11:51:11;6.38;;;2.35;;
49177;SDS011;35016;55.674;37.468;2023-04-15T11:53:46;7.28;;;2.45;;
49177;SDS011;35016;55.674;37.468;2023-04-15T11:56:23;9.05;;;3.25;;
49177;SDS011;35016;55.674;37.468;2023-04-15T11:58:54;8.02;;;2.85;;
49177;SDS011;35016;55.674;37.468;2023-04-15T12:01:35;8.20;;;2.65;;
49177;SDS011;35016;55.674;37.468;2023-04-15T12:04:13;11.30;;;3.17;;
49177;SDS011;35016;55.674;37.468;2023-04-15T12:06:43;10.73;;;3.40;;
49177;SDS011;35016;55.674;37.468;2023-04-15T12:09:12;7.68;;;2.58;;
49177;SDS011;35016;55.674;37.468;2023-04-15T12:11:43;6.82;;;2.55;;
49177;SDS011;35016;55.674;37.468;2023-04-15T12:16:43;5.07;;;1.90;;
49177;SDS011;35016;55.674;37.468;2023-04-15T12:19:18;7.43;;;2.83;;
49177;SDS011;35016;55.674;37.468;2023-04-15T12:21:49;6.68;;;2.55;;
49177;SDS011;35016;55.674;37.468;2023-04-15T12:24:21;6.43;;;2.60;;
49177;SDS011;35016;55.674;37.468;2023-04-15T12:26:50;7.97;;;2.67;;
49177;SDS011;35016;55.674;37.468;2023-04-15T12:29:19;7.95;;;2.67;;
49177;SDS011;35016;55.674;37.468;2023-04-15T12:31:51;10.43;;;4.07;;
49177;SDS011;35016;55.674;37.468;2023-04-15T12:34:28;10.75;;;4.63;;
49177;SDS011;35016;55.674;37.468;2023-04-15T12:37:01;9.65;;;3.50;;
49177;SDS011;35016;55.674;37.468;2023-04-15T12:39:30;10.55;;;4.00;;
49177;SDS011;35016;55.674;37.468;2023-04-15T12:42:02;10.73;;;3.45;;
49177;SDS011;35016;55.674;37.468;2023-04-15T12:44:30;9.63;;;3.53;;
49177;SDS011;35016;55.674;37.468;2023-04-15T12:46:58;6.45;;;2.75;;
49177;SDS011;35016;55.674;37.468;2023-04-15T12:49:26;8.00;;;3.13;;
49177;SDS011;35016;55.674;37.468;2023-04-15T12:51:57;6.93;;;2.10;;
49177;SDS011;35016;55.674;37.468;2023-04-15T12:54:28;10.23;;;3.25;;
49177;SDS011;35016;55.674;37.468;2023-04-15T12:56:57;6.90;;;2.33;;
49177;SDS011;35016;55.674;37.468;2023-04-15T12:59:24;7.25;;;2.42;;
49177;SDS011;35016;55.674;37.468;2023-04-15T13:01:52;7.65;;;2.50;;
49177;SDS011;35016;55.674;37.468;2023-04-15T13:04:20;6.40;;;2.22;;
49177;SDS011;35016;55.674;37.468;2023-04-15T13:06:48;7.45;;;2.72;;
49177;SDS011;35016;55.674;37.468;2023-04-15T13:09:15;6.78;;;2.17;;
49177;SDS011;35016;55.674;37.468;2023-04-15T13:11:42;6.75;;;2.50;;
49177;SDS011;35016;55.674;37.468;2023-04-15T13:14:10;6.93;;;2.15;;
49177;SDS011;35016;55.674;37.468;2023-04-15T13:16:38;9.10;;;3.10;;
49177;SDS011;35016;55.674;37.468;2023-04-15T13:19:06;9.15;;;3.10;;
49177;SDS011;35016;55.674;37.468;2023-04-15T13:21:35;9.90;;;3.13;;
49177;SDS011;35016;55.674;37.468;2023-04-15T13:24:02;6.55;;;2.30;;
49177;SDS011;35016;55.674;37.468;2023-04-15T13:26:31;7.07;;;2.55;;
49177;SDS011;35016;55.674;37.468;2023-04-15T13:28:58;6.05;;;1.98;;
49177;SDS011;35016;55.674;37.468;2023-04-15T13:31:26;7.03;;;2.22;;
49177;SDS011;35016;55.674;37.468;2023-04-15T13:33:53;6.50;;;2.25;;
49177;SDS011;35016;55.674;37.468;2023-04-15T13:36:22;7.97;;;2.28;;
49177;SDS011;35016;55.674;37.468;2023-04-15T13:38:49;7.15;;;2.08;;
49177;SDS011;35016;55.674;37.468;2023-04-15T13:41:17;6.82;;;2.80;;
49177;SDS011;35016;55.674;37.468;2023-04-15T13:43:45;7.10;;;2.55;;
49177;SDS011;35016;55.674;37.468;2023-04-15T13:46:13;7.13;;;2.28;;
49177;SDS011;35016;55.674;37.468;2023-04-15T13:48:40;8.07;;;2.83;;
49177;SDS011;35016;55.674;37.468;2023-04-15T13:51:07;8.18;;;2.47;;
49177;SDS011;35016;55.674;37.468;2023-04-15T13:53:34;12.00;;;2.90;;
49177;SDS011;35016;55.674;37.468;2023-04-15T13:56:08;11.48;;;3.20;;
49177;SDS011;35016;55.674;37.468;2023-04-15T13:58:36;8.50;;;3.00;;
49177;SDS011;35016;55.674;37.468;2023-04-15T14:01:04;9.02;;;3.60;;
49177;SDS011;35016;55.674;37.468;2023-04-15T14:03:35;8.20;;;2.95;;
49177;SDS011;35016;55.674;37.468;2023-04-15T14:06:03;7.78;;;2.45;;
49177;SDS011;35016;55.674;37.468;2023-04-15T14:08:31;7.15;;;2.38;;
49177;SDS011;35016;55.674;37.468;2023-04-15T14:10:59;7.78;;;2.50;;
49177;SDS011;35016;55.674;37.468;2023-04-15T14:13:26;8.85;;;3.38;;
49177;SDS011;35016;55.674;37.468;2023-04-15T14:15:53;10.73;;;3.65;;
49177;SDS011;35016;55.674;37.468;2023-04-15T14:18:22;8.23;;;3.75;;
49177;SDS011;35016;55.674;37.468;2023-04-15T14:20:49;9.85;;;4.28;;
49177;SDS011;35016;55.674;37.468;2023-04-15T14:23:17;9.50;;;4.07;;
49177;SDS011;35016;55.674;37.468;2023-04-15T14:25:44;9.95;;;3.67;;
49177;SDS011;35016;55.674;37.468;2023-04-15T14:28:14;9.75;;;4.20;;
49177;SDS011;35016;55.674;37.468;2023-04-15T14:30:42;10.10;;;4.60;;
49177;SDS011;35016;55.674;37.468;2023-04-15T14:33:09;9.93;;;4.03;;
49177;SDS011;35016;55.674;37.468;2023-04-15T14:35:36;10.55;;;4.65;;
49177;SDS011;35016;55.674;37.468;2023-04-15T14:38:03;9.40;;;4.28;;
49177;SDS011;35016;55.674;37.468;2023-04-15T14:40:32;10.95;;;4.35;;
49177;SDS011;35016;55.674;37.468;2023-04-15T14:42:59;8.13;;;3.53;;
49177;SDS011;35016;55.674;37.468;2023-04-15T14:45:26;7.20;;;2.78;;
49177;SDS011;35016;55.674;37.468;2023-04-15T14:47:53;10.57;;;3.53;;
49177;SDS011;35016;55.674;37.468;2023-04-15T14:50:20;11.75;;;2.97;;
49177;SDS011;35016;55.674;37.468;2023-04-15T14:52:47;8.85;;;2.83;;
49177;SDS011;35016;55.674;37.468;2023-04-15T14:55:14;6.72;;;2.50;;
49177;SDS011;35016;55.674;37.468;2023-04-15T14:57:41;11.70;;;3.92;;
49177;SDS011;35016;55.674;37.468;2023-04-15T15:00:09;9.20;;;3.53;;
49177;SDS011;35016;55.674;37.468;2023-04-15T15:02:41;7.45;;;2.35;;
49177;SDS011;35016;55.674;37.468;2023-04-15T15:05:09;7.30;;;2.65;;
49177;SDS011;35016;55.674;37.468;2023-04-15T15:07:37;7.05;;;2.92;;
49177;SDS011;35016;55.674;37.468;2023-04-15T15:10:06;8.43;;;2.90;;
49177;SDS011;35016;55.674;37.468;2023-04-15T15:12:34;6.85;;;2.58;;
49177;SDS011;35016;55.674;37.468;2023-04-15T15:15:02;11.00;;;3.25;;